Time;durP1;ratioP1;P1;durP2;ratioP2;P2;SDS_P1;SDS_P2;PMS_P1;PMS_P2;Temp;Humidity;BMP_temperature;BMP_pressure;BME280_temperature;BME280_humidity;BME280_pressure;Samples;Min_cycle;Max_cycle;Signal;HPM_P1;HPM_P2
2020/12/28 00:01:34;;;;;;;0.40;0.40;;;6.00;99.90;;;;;;5010927;28;20038;-63
2020/12/28 00:04:00;;;;;;;0.60;0.40;;;5.90;99.90;;;;;;5010213;28;20388;-63
2020/12/28 00:06:26;;;;;;;1.33;0.55;;;5.80;99.90;;;;;;5010516;28;20026;-63
2020/12/28 00:08:51;;;;;;;1.77;0.50;;;5.90;99.90;;;;;;5009591;28;20105;-63
2020/12/28 00:11:18;;;;;;;0.55;0.45;;;5.90;99.90;;;;;;5010613;28;20033;-63
2020/12/28 00:13:44;;;;;;;0.40;0.40;;;5.90;99.90;;;;;;5011080;28;20109;-63
2020/12/28 00:16:11;;;;;;;2.88;0.60;;;5.90;99.90;;;;;;5009895;28;20052;-64
2020/12/28 00:18:37;;;;;;;0.75;0.68;;;5.90;99.90;;;;;;5010434;28;20347;-63
2020/12/28 00:21:02;;;;;;;0.50;0.50;;;5.90;99.90;;;;;;5009320;28;20335;-63
2020/12/28 00:23:28;;;;;;;0.50;0.50;;;5.90;99.90;;;;;;5009904;28;20069;-63
2020/12/28 00:25:53;;;;;;;0.40;0.38;;;5.90;99.90;;;;;;4998206;28;20141;-63
2020/12/28 00:28:19;;;;;;;0.38;0.38;;;5.90;99.90;;;;;;4989764;28;20409;-62
2020/12/28 00:30:44;;;;;;;0.30;0.30;;;5.90;99.90;;;;;;4989903;28;20034;-63
2020/12/28 00:33:10;;;;;;;0.93;0.43;;;5.90;99.90;;;;;;4990280;28;20030;-64
2020/12/28 00:35:35;;;;;;;0.90;0.45;;;5.90;99.90;;;;;;4989341;28;20073;-63
2020/12/28 00:38:01;;;;;;;0.50;0.30;;;5.80;99.90;;;;;;4990292;28;20034;-64
2020/12/28 00:40:26;;;;;;;0.40;0.40;;;5.80;99.90;;;;;;4994399;28;20474;-63
2020/12/28 00:42:52;;;;;;;1.45;0.40;;;5.80;99.90;;;;;;5009291;28;20026;-63
2020/12/28 00:45:17;;;;;;;0.30;0.30;;;5.80;99.90;;;;;;5009456;28;20018;-62
2020/12/28 00:47:43;;;;;;;0.38;0.38;;;5.70;99.90;;;;;;5008696;28;20026;-63
2020/12/28 00:50:08;;;;;;;0.30;0.30;;;5.70;99.90;;;;;;5009273;28;20049;-63
2020/12/28 00:52:34;;;;;;;0.70;0.40;;;5.60;99.90;;;;;;5009049;28;20389;-63
2020/12/28 00:55:00;;;;;;;0.50;0.40;;;5.60;99.90;;;;;;4999965;28;20043;-63
2020/12/28 00:57:25;;;;;;;0.40;0.30;;;5.60;99.90;;;;;;4989729;28;20034;-64
2020/12/28 00:59:51;;;;;;;0.43;0.40;;;5.60;99.90;;;;;;4989725;28;20173;-63
2020/12/28 01:02:16;;;;;;;0.40;0.40;;;5.50;99.90;;;;;;4989524;28;20033;-63
2020/12/28 01:04:42;;;;;;;0.52;0.52;;;5.50;99.90;;;;;;4989139;28;20034;-63
2020/12/28 01:07:07;;;;;;;1.52;0.40;;;5.50;99.90;;;;;;4989712;28;20150;-63
2020/12/28 01:09:33;;;;;;;1.10;0.70;;;5.50;99.90;;;;;;4989357;28;20393;-64
2020/12/28 01:11:58;;;;;;;0.90;0.40;;;5.50;99.90;;;;;;5006800;28;20132;-64
2020/12/28 01:14:24;;;;;;;0.47;0.38;;;5.50;99.90;;;;;;5008429;28;20040;-64
2020/12/28 01:16:49;;;;;;;0.57;0.30;;;5.60;99.90;;;;;;5009178;28;20022;-63
2020/12/28 01:19:15;;;;;;;0.40;0.40;;;5.50;99.90;;;;;;5009089;28;20028;-64
2020/12/28 01:21:40;;;;;;;0.30;0.30;;;5.50;99.90;;;;;;5008048;28;20038;-64
2020/12/28 01:24:06;;;;;;;0.38;0.30;;;5.50;99.90;;;;;;5009278;28;20025;-63
2020/12/28 01:26:31;;;;;;;0.40;0.40;;;5.50;99.90;;;;;;4995168;28;20076;-63
2020/12/28 01:28:57;;;;;;;1.35;0.63;;;5.50;99.90;;;;;;4989422;28;20046;-64
2020/12/28 01:31:22;;;;;;;0.40;0.40;;;5.50;99.90;;;;;;4988593;28;20486;-63
2020/12/28 01:33:48;;;;;;;1.45;0.43;;;5.50;99.90;;;;;;4989683;28;20089;-63
2020/12/28 01:36:13;;;;;;;0.45;0.43;;;5.50;99.90;;;;;;5000182;28;20113;-63
2020/12/28 01:38:39;;;;;;;0.60;0.40;;;5.50;99.90;;;;;;5009006;28;20445;-63
2020/12/28 01:41:05;;;;;;;1.23;0.50;;;5.50;99.90;;;;;;4990561;28;20389;-62
2020/12/28 01:43:31;;;;;;;0.45;0.45;;;5.50;99.90;;;;;;4988454;28;20035;-63
2020/12/28 01:46:00;;;;;;;0.32;0.32;;;5.50;99.90;;;;;;4989038;28;20037;-63
2020/12/28 01:48:27;;;;;;;0.45;0.40;;;5.50;99.90;;;;;;4989074;28;20037;-64
2020/12/28 01:50:54;;;;;;;0.63;0.52;;;5.50;99.90;;;;;;4989074;28;20026;-64
2020/12/28 01:53:20;;;;;;;0.50;0.40;;;5.50;99.90;;;;;;4988648;28;20101;-63
2020/12/28 01:55:48;;;;;;;0.50;0.50;;;5.50;99.90;;;;;;4994748;28;20560;-64
2020/12/28 01:58:14;;;;;;;0.50;0.50;;;5.50;99.90;;;;;;4989427;28;20105;-62
2020/12/28 02:00:40;;;;;;;0.68;0.40;;;5.50;99.90;;;;;;4992476;28;20589;-63
2020/12/28 02:03:09;;;;;;;1.20;0.60;;;5.50;99.90;;;;;;4993312;28;20180;-63
2020/12/28 02:05:36;;;;;;;0.70;0.50;;;5.50;99.90;;;;;;4992485;28;20022;-64
2020/12/28 02:08:02;;;;;;;0.60;0.50;;;5.50;99.90;;;;;;5006311;28;20037;-64
2020/12/28 02:10:27;;;;;;;2.97;0.60;;;5.50;99.90;;;;;;5006591;28;20080;-62
2020/12/28 02:12:53;;;;;;;1.35;0.80;;;5.60;99.90;;;;;;4992360;28;20026;-63
2020/12/28 02:15:19;;;;;;;1.45;0.90;;;5.50;99.90;;;;;;4992380;28;20041;-63
2020/12/28 02:17:45;;;;;;;0.75;0.50;;;5.60;99.90;;;;;;4992441;28;20030;-63
2020/12/28 02:20:11;;;;;;;0.47;0.43;;;5.60;99.90;;;;;;4992903;28;20417;-63
2020/12/28 02:22:39;;;;;;;0.28;0.28;;;5.60;99.90;;;;;;5008310;28;20127;-63
2020/12/28 02:25:05;;;;;;;0.30;0.30;;;5.50;99.90;;;;;;5009465;28;20026;-63
2020/12/28 02:27:30;;;;;;;1.05;0.40;;;5.60;99.90;;;;;;4992399;28;20080;-63
2020/12/28 02:29:56;;;;;;;0.77;0.40;;;5.50;99.90;;;;;;4992345;28;20644;-63
2020/12/28 02:32:21;;;;;;;0.30;0.30;;;5.40;99.90;;;;;;4992093;28;20060;-63
2020/12/28 02:34:47;;;;;;;0.65;0.40;;;5.30;99.90;;;;;;4991914;28;20351;-63
2020/12/28 02:37:13;;;;;;;0.82;0.40;;;5.30;99.90;;;;;;4993404;28;20022;-63
2020/12/28 02:39:38;;;;;;;0.25;0.25;;;5.30;99.90;;;;;;4992249;28;20057;-63
2020/12/28 02:42:03;;;;;;;0.30;0.30;;;5.30;99.90;;;;;;5009755;28;20033;-62
2020/12/28 02:44:29;;;;;;;0.30;0.30;;;5.30;99.90;;;;;;5010359;28;20198;-61
2020/12/28 02:46:54;;;;;;;0.60;0.30;;;5.20;99.90;;;;;;5011887;28;20484;-63
2020/12/28 02:49:20;;;;;;;0.30;0.30;;;5.20;99.90;;;;;;5011472;28;20026;-63
2020/12/28 02:51:45;;;;;;;0.30;0.30;;;5.20;99.90;;;;;;4992321;28;20054;-63
2020/12/28 02:54:11;;;;;;;0.30;0.30;;;5.10;99.90;;;;;;4991991;28;20046;-62
2020/12/28 02:56:36;;;;;;;0.20;0.20;;;5.10;99.90;;;;;;5005921;28;20037;-63
2020/12/28 02:59:02;;;;;;;0.30;0.30;;;5.10;99.90;;;;;;5011273;28;20093;-63
2020/12/28 03:01:28;;;;;;;2.10;0.40;;;5.10;99.90;;;;;;5011205;28;20092;-63
2020/12/28 03:03:53;;;;;;;4.28;0.50;;;5.00;99.90;;;;;;5008541;28;20202;-61
2020/12/28 03:06:19;;;;;;;0.20;0.20;;;5.10;99.90;;;;;;4992011;28;20034;-61
2020/12/28 03:08:44;;;;;;;0.50;0.30;;;5.00;99.90;;;;;;4991606;28;20386;-62
2020/12/28 03:11:10;;;;;;;0.45;0.35;;;5.00;99.90;;;;;;4991085;28;20507;-65
2020/12/28 03:13:35;;;;;;;3.65;0.60;;;5.10;99.90;;;;;;4991387;28;20053;-64
2020/12/28 03:16:01;;;;;;;0.30;0.30;;;5.00;99.90;;;;;;4991373;28;20062;-63
2020/12/28 03:18:26;;;;;;;0.20;0.20;;;5.00;99.90;;;;;;4990149;28;20409;-64
2020/12/28 03:20:52;;;;;;;1.30;0.45;;;5.00;99.90;;;;;;4998538;28;20351;-63
2020/12/28 03:23:17;;;;;;;0.55;0.45;;;5.00;99.90;;;;;;5011056;28;20134;-64
2020/12/28 03:25:43;;;;;;;0.40;0.28;;;5.00;99.90;;;;;;5003165;28;20287;-64
2020/12/28 03:28:08;;;;;;;1.75;0.40;;;5.00;99.90;;;;;;4991497;28;20026;-64
2020/12/28 03:30:34;;;;;;;0.40;0.38;;;5.00;99.90;;;;;;4991695;28;20037;-63
2020/12/28 03:32:59;;;;;;;0.57;0.40;;;5.00;99.90;;;;;;4993861;28;20035;-63
2020/12/28 03:35:25;;;;;;;1.20;0.50;;;5.00;99.90;;;;;;5010527;28;20033;-63
2020/12/28 03:37:50;;;;;;;1.02;0.52;;;5.10;99.90;;;;;;5001567;28;20038;-64
2020/12/28 03:40:16;;;;;;;1.55;0.60;;;5.10;99.90;;;;;;4994009;28;20042;-64
2020/12/28 03:42:42;;;;;;;2.22;0.70;;;5.10;99.90;;;;;;5010360;28;20033;-64
2020/12/28 03:45:07;;;;;;;1.10;0.82;;;5.10;99.90;;;;;;5010390;28;20025;-64
2020/12/28 03:47:33;;;;;;;1.70;0.60;;;5.00;99.90;;;;;;5010369;28;20022;-64
2020/12/28 03:49:58;;;;;;;0.98;0.60;;;5.00;99.90;;;;;;5010768;28;20504;-63
2020/12/28 03:52:24;;;;;;;1.25;0.40;;;5.00;99.90;;;;;;5010405;28;20030;-63
2020/12/28 03:54:49;;;;;;;0.40;0.40;;;5.00;99.90;;;;;;5008217;28;20038;-64
2020/12/28 03:57:15;;;;;;;0.82;0.50;;;5.00;99.90;;;;;;5010117;28;20113;-64
2020/12/28 03:59:40;;;;;;;1.55;0.45;;;5.00;99.90;;;;;;5010538;28;20028;-64
2020/12/28 04:02:06;;;;;;;0.30;0.30;;;5.00;99.90;;;;;;5009588;28;20072;-63
2020/12/28 04:04:32;;;;;;;0.73;0.40;;;5.00;99.90;;;;;;5010379;28;20057;-63
2020/12/28 04:10:19;;;;;;;0.80;0.50;;;5.00;99.90;;;;;;5006212;28;20091;-63
2020/12/28 04:12:45;;;;;;;0.25;0.25;;;4.90;99.90;;;;;;5010142;28;20022;-64
2020/12/28 04:15:10;;;;;;;1.75;0.98;;;4.90;99.90;;;;;;5010618;28;20038;-63
2020/12/28 04:17:36;;;;;;;1.15;0.30;;;4.90;99.90;;;;;;5010915;28;20038;-62
2020/12/28 04:20:02;;;;;;;1.42;0.40;;;4.80;99.90;;;;;;5010901;28;20030;-63
2020/12/28 04:22:27;;;;;;;4.15;0.40;;;4.70;99.90;;;;;;5008820;28;20045;-64
2020/12/28 04:24:53;;;;;;;2.65;0.40;;;4.60;99.90;;;;;;5008626;28;20309;-64
2020/12/28 04:27:18;;;;;;;0.47;0.45;;;4.60;99.90;;;;;;5009295;28;20105;-64
2020/12/28 04:29:44;;;;;;;0.30;0.30;;;4.50;99.90;;;;;;5010032;28;20026;-64
2020/12/28 04:32:09;;;;;;;0.95;0.32;;;4.50;99.90;;;;;;5009481;28;20029;-64
2020/12/28 04:34:35;;;;;;;0.40;0.40;;;4.50;99.90;;;;;;5009490;28;20550;-64
2020/12/28 04:37:00;;;;;;;0.52;0.38;;;4.50;99.90;;;;;;5008115;28;20084;-63
2020/12/28 04:39:26;;;;;;;0.40;0.40;;;4.50;99.90;;;;;;4998466;28;20069;-64
2020/12/28 04:41:52;;;;;;;2.67;0.50;;;4.40;99.90;;;;;;5005644;28;20038;-64
2020/12/28 04:44:18;;;;;;;1.13;0.40;;;4.40;99.90;;;;;;5009574;28;20030;-64
2020/12/28 04:46:44;;;;;;;0.57;0.50;;;4.50;99.90;;;;;;5009372;28;20352;-64
2020/12/28 04:49:09;;;;;;;0.75;0.55;;;4.50;99.90;;;;;;5009247;28;20026;-62
2020/12/28 04:51:35;;;;;;;0.52;0.32;;;4.40;99.90;;;;;;5008766;28;20030;-64
2020/12/28 04:54:00;;;;;;;0.57;0.40;;;4.40;99.90;;;;;;4994173;28;20074;-62
2020/12/28 04:56:26;;;;;;;0.90;0.32;;;4.40;99.90;;;;;;5002599;28;20069;-64
2020/12/28 04:58:52;;;;;;;3.42;0.55;;;4.50;99.90;;;;;;5008630;28;20310;-63
2020/12/28 05:01:17;;;;;;;0.88;0.50;;;4.40;99.90;;;;;;5008382;28;20117;-64
2020/12/28 05:03:43;;;;;;;2.40;0.50;;;4.40;99.90;;;;;;5009308;28;20033;-64
2020/12/28 05:06:08;;;;;;;0.50;0.40;;;4.40;99.90;;;;;;5008660;28;20025;-64
2020/12/28 05:08:34;;;;;;;0.47;0.40;;;4.40;99.90;;;;;;5009849;28;20056;-63
2020/12/28 05:11:07;;;;;;;1.65;0.47;;;4.40;99.90;;;;;;4999149;28;20472;-63
2020/12/28 05:13:33;;;;;;;1.10;0.50;;;4.30;99.90;;;;;;4989512;28;20045;-63
2020/12/28 05:15:58;;;;;;;0.70;0.45;;;4.30;99.90;;;;;;4989434;28;20026;-64
2020/12/28 05:18:24;;;;;;;2.10;0.45;;;4.30;99.90;;;;;;4989548;28;20100;-63
2020/12/28 05:20:50;;;;;;;2.80;0.40;;;4.20;99.90;;;;;;4989175;28;20089;-64
2020/12/28 05:23:17;;;;;;;1.38;0.40;;;4.20;99.90;;;;;;4989211;28;20066;-64
2020/12/28 05:25:46;;;;;;;2.10;0.70;;;4.10;99.90;;;;;;5002686;28;20119;-64
2020/12/28 05:28:17;;;;;;;0.68;0.50;;;4.20;99.90;;;;;;5009028;28;20440;-64
2020/12/28 05:30:44;;;;;;;1.63;0.75;;;4.20;99.90;;;;;;5008498;28;20021;-64
2020/12/28 05:33:10;;;;;;;1.33;0.47;;;4.30;99.90;;;;;;5008734;28;20064;-64
2020/12/28 05:35:36;;;;;;;2.60;0.63;;;4.30;99.90;;;;;;5008748;28;20432;-62
2020/12/28 05:38:02;;;;;;;1.05;0.68;;;4.30;99.90;;;;;;5009178;28;20505;-63
2020/12/28 05:40:28;;;;;;;0.47;0.40;;;4.30;99.90;;;;;;5004843;28;20401;-64
2020/12/28 05:42:55;;;;;;;0.38;0.38;;;4.30;99.90;;;;;;4994171;28;20030;-64
2020/12/28 05:45:21;;;;;;;0.47;0.45;;;4.30;99.90;;;;;;4988615;28;20034;-64
2020/12/28 05:47:52;;;;;;;2.22;0.50;;;4.40;99.90;;;;;;4989540;28;20106;-63
2020/12/28 05:50:21;;;;;;;0.70;0.52;;;4.40;99.90;;;;;;4989022;28;20444;-63
2020/12/28 05:52:51;;;;;;;1.05;0.68;;;4.40;99.90;;;;;;4993727;28;20571;-63
2020/12/28 05:55:18;;;;;;;2.55;0.50;;;4.40;99.90;;;;;;5004592;28;20482;-62
2020/12/28 05:57:45;;;;;;;1.05;0.45;;;4.30;99.90;;;;;;4989433;28;20026;-64
2020/12/28 06:00:11;;;;;;;0.65;0.47;;;4.30;99.90;;;;;;4989119;28;20026;-63
2020/12/28 06:02:39;;;;;;;0.40;0.40;;;4.30;99.90;;;;;;4996231;28;20036;-64
2020/12/28 06:05:12;;;;;;;0.35;0.30;;;4.20;99.90;;;;;;5008618;28;20022;-64
2020/12/28 06:07:37;;;;;;;0.63;0.50;;;4.20;99.90;;;;;;5008832;28;20110;-63
2020/12/28 06:10:07;;;;;;;0.52;0.50;;;4.20;99.90;;;;;;5007631;28;20165;-64
2020/12/28 06:12:33;;;;;;;0.85;0.50;;;4.10;99.90;;;;;;5008531;28;20022;-64
2020/12/28 06:14:59;;;;;;;0.90;0.57;;;4.10;99.90;;;;;;5007965;28;20045;-64
2020/12/28 06:17:51;;;;;;;0.65;0.40;;;4.10;99.90;;;;;;4995547;28;20061;-64
2020/12/28 06:20:16;;;;;;;0.40;0.40;;;4.10;99.90;;;;;;4987407;28;20057;-63
2020/12/28 06:22:43;;;;;;;0.63;0.40;;;4.10;99.90;;;;;;4988756;28;20030;-62
2020/12/28 06:25:13;;;;;;;0.57;0.50;;;4.10;99.90;;;;;;4990971;28;20044;-64
2020/12/28 06:27:40;;;;;;;3.30;1.08;;;4.00;99.90;;;;;;5007925;28;20401;-64
2020/12/28 06:30:18;;;;;;;0.95;0.50;;;4.00;99.90;;;;;;5008198;28;20026;-63
2020/12/28 06:32:45;;;;;;;0.30;0.30;;;4.00;99.90;;;;;;5007985;28;20041;-64
2020/12/28 06:35:12;;;;;;;0.75;0.40;;;3.90;99.90;;;;;;5008387;28;20022;-64
2020/12/28 06:37:52;;;;;;;0.47;0.40;;;3.90;99.90;;;;;;5007728;28;20469;-61
2020/12/28 06:40:36;;;;;;;1.00;0.40;;;3.90;99.90;;;;;;5006188;28;20033;-64
2020/12/28 06:43:22;;;;;;;0.73;0.60;;;3.90;99.90;;;;;;5000436;28;20381;-64
2020/12/28 06:45:49;;;;;;;1.15;0.50;;;3.90;99.90;;;;;;4989431;28;20030;-64
2020/12/28 06:48:22;;;;;;;1.75;0.50;;;3.80;99.90;;;;;;4992043;28;20034;-63
2020/12/28 06:50:49;;;;;;;2.67;0.60;;;3.80;99.90;;;;;;4992046;28;20033;-61
2020/12/28 06:53:25;;;;;;;0.40;0.40;;;3.80;99.90;;;;;;4991727;28;20028;-64
2020/12/28 06:55:51;;;;;;;1.13;0.60;;;3.80;99.90;;;;;;4999841;28;20048;-62
2020/12/28 06:58:16;;;;;;;2.38;0.70;;;3.70;99.90;;;;;;5011484;28;20034;-63
2020/12/28 07:00:42;;;;;;;1.30;0.50;;;3.70;99.90;;;;;;5011493;28;20362;-62
2020/12/28 07:03:12;;;;;;;3.67;0.50;;;3.60;99.90;;;;;;5011157;28;20030;-64
2020/12/28 07:05:39;;;;;;;4.32;1.33;;;3.50;99.90;;;;;;5011252;28;20101;-64
2020/12/28 07:08:05;;;;;;;3.72;0.80;;;3.50;99.90;;;;;;5005723;28;20490;-64
2020/12/28 07:10:30;;;;;;;6.05;0.60;;;3.50;99.90;;;;;;4991572;28;20118;-64
2020/12/28 07:13:05;;;;;;;1.30;0.73;;;3.40;99.90;;;;;;4991482;28;20401;-64
2020/12/28 07:15:31;;;;;;;1.80;0.70;;;3.40;99.90;;;;;;4991541;28;20027;-64
2020/12/28 07:18:07;;;;;;;1.67;0.90;;;3.40;99.90;;;;;;4991605;28;20462;-64
2020/12/28 07:20:33;;;;;;;1.88;0.80;;;3.40;99.90;;;;;;4991356;28;20213;-64
2020/12/28 07:22:59;;;;;;;1.52;0.68;;;3.40;99.90;;;;;;5002555;28;20132;-64
2020/12/28 07:25:24;;;;;;;0.88;0.65;;;3.40;99.90;;;;;;5010977;28;20030;-64
2020/12/28 07:27:51;;;;;;;2.67;0.80;;;3.40;99.90;;;;;;5010519;28;20040;-64
2020/12/28 07:30:17;;;;;;;1.10;0.90;;;3.30;99.90;;;;;;5005165;28;20134;-64
2020/12/28 07:32:43;;;;;;;0.88;0.70;;;3.20;99.90;;;;;;4991146;28;20364;-64
2020/12/28 07:35:08;;;;;;;1.15;0.65;;;3.10;99.90;;;;;;5007617;28;20400;-63
2020/12/28 07:37:41;;;;;;;1.05;0.75;;;3.10;99.90;;;;;;5010687;28;20489;-64
2020/12/28 07:40:08;;;;;;;0.80;0.60;;;3.10;99.90;;;;;;5008347;28;20057;-64
2020/12/28 07:42:34;;;;;;;1.38;0.70;;;3.00;99.90;;;;;;4990895;28;20029;-64
2020/12/28 07:45:03;;;;;;;3.33;0.60;;;2.80;99.90;;;;;;4991078;28;20064;-64
2020/12/28 07:47:45;;;;;;;2.83;0.73;;;2.80;99.90;;;;;;4994181;28;20614;-64
2020/12/28 07:50:14;;;;;;;3.20;1.13;;;2.80;99.90;;;;;;5010376;28;20084;-64
2020/12/28 07:53:06;;;;;;;3.92;0.70;;;2.70;99.90;;;;;;5011078;28;20076;-65
2020/12/28 07:55:42;;;;;;;2.30;0.80;;;2.60;99.90;;;;;;5003707;28;20121;-63
2020/12/28 07:58:12;;;;;;;1.08;0.70;;;2.70;99.90;;;;;;4990488;28;20108;-63
2020/12/28 08:00:43;;;;;;;1.15;0.77;;;2.70;99.90;;;;;;4990512;28;20596;-61
2020/12/28 08:03:18;;;;;;;3.03;0.82;;;2.70;99.90;;;;;;5005565;28;20033;-63
2020/12/28 08:05:44;;;;;;;4.95;1.33;;;2.80;99.90;;;;;;5010127;28;20033;-64
2020/12/28 08:08:20;;;;;;;3.67;1.08;;;2.80;99.90;;;;;;5001397;28;20104;-64
2020/12/28 08:10:58;;;;;;;1.98;1.08;;;2.90;99.90;;;;;;5009270;28;20030;-64
2020/12/28 08:13:29;;;;;;;3.13;0.90;;;2.90;99.90;;;;;;5010029;28;20156;-64
2020/12/28 08:16:05;;;;;;;8.30;0.98;;;2.90;99.90;;;;;;5010599;28;20029;-64
2020/12/28 08:18:31;;;;;;;3.47;1.48;;;2.90;99.90;;;;;;5007024;28;20046;-64
2020/12/28 08:20:57;;;;;;;4.00;1.30;;;2.90;99.90;;;;;;4990677;28;20037;-64
2020/12/28 08:23:29;;;;;;;4.50;1.33;;;2.90;99.90;;;;;;4991878;28;20031;-64
2020/12/28 08:25:55;;;;;;;3.97;1.00;;;2.90;99.90;;;;;;4992242;28;20081;-64
2020/12/28 08:28:21;;;;;;;8.07;1.25;;;2.90;99.90;;;;;;4990633;28;20022;-63
2020/12/28 08:30:47;;;;;;;2.88;1.13;;;2.80;99.90;;;;;;4989866;28;20042;-64
2020/12/28 08:33:16;;;;;;;8.15;1.90;;;2.80;99.90;;;;;;4987984;28;20027;-65
2020/12/28 08:35:51;;;;;;;6.80;1.48;;;2.90;99.90;;;;;;4989554;28;20405;-68
2020/12/28 08:38:28;;;;;;;2.63;1.00;;;2.90;99.90;;;;;;4989939;28;20046;-63
2020/12/28 08:40:55;;;;;;;2.80;1.27;;;3.00;99.90;;;;;;5002223;28;20056;-65
2020/12/28 08:43:21;;;;;;;6.43;0.90;;;3.00;99.90;;;;;;5009439;28;20091;-64
2020/12/28 08:45:47;;;;;;;5.93;1.20;;;3.10;99.90;;;;;;5009636;28;20029;-65
2020/12/28 08:48:12;;;;;;;3.50;0.90;;;3.20;99.90;;;;;;5009247;28;20124;-65
2020/12/28 08:50:38;;;;;;;2.92;0.80;;;3.30;99.90;;;;;;5009364;28;20485;-62
2020/12/28 08:53:04;;;;;;;5.93;1.23;;;3.40;99.90;;;;;;5008806;28;20499;-62
2020/12/28 08:55:29;;;;;;;4.93;1.40;;;3.50;99.90;;;;;;4992388;28;20042;-63
2020/12/28 08:57:58;;;;;;;3.85;1.05;;;3.60;99.90;;;;;;4990132;28;20038;-61
2020/12/28 09:00:26;;;;;;;5.80;1.83;;;3.70;99.90;;;;;;4987702;28;20034;-62
2020/12/28 09:02:56;;;;;;;2.25;1.40;;;3.80;99.90;;;;;;4989441;28;20106;-64
2020/12/28 09:05:29;;;;;;;3.47;1.20;;;3.90;99.90;;;;;;4990001;28;20037;-61
2020/12/28 09:07:54;;;;;;;3.60;1.20;;;3.90;99.90;;;;;;4991670;28;20394;-64
2020/12/28 09:10:20;;;;;;;2.20;1.00;;;4.00;99.90;;;;;;5004630;28;20034;-64
2020/12/28 09:12:46;;;;;;;1.75;0.90;;;4.00;99.90;;;;;;4989771;28;20030;-64
2020/12/28 09:15:12;;;;;;;5.95;1.02;;;4.10;99.90;;;;;;4989213;28;20041;-64
2020/12/28 09:17:37;;;;;;;1.10;0.88;;;4.10;99.90;;;;;;4988885;28;20022;-64
2020/12/28 09:20:05;;;;;;;1.80;1.23;;;4.10;99.90;;;;;;4989215;28;20114;-64
2020/12/28 09:22:30;;;;;;;4.32;1.63;;;4.10;99.90;;;;;;4994963;28;20439;-64
2020/12/28 09:24:56;;;;;;;5.35;1.50;;;4.20;99.90;;;;;;5007898;28;20092;-64
2020/12/28 09:27:21;;;;;;;2.72;1.35;;;4.20;99.90;;;;;;5009263;28;20022;-64
2020/12/28 09:29:47;;;;;;;5.07;1.35;;;4.20;99.90;;;;;;5008838;28;20433;-63
2020/12/28 09:32:12;;;;;;;2.33;1.10;;;4.10;99.90;;;;;;5008607;28;20030;-65
2020/12/28 09:34:38;;;;;;;1.92;1.10;;;4.10;99.90;;;;;;4991969;28;20469;-65
2020/12/28 09:37:06;;;;;;;2.55;1.17;;;4.10;99.90;;;;;;5002140;28;20033;-64
2020/12/28 09:39:33;;;;;;;2.20;1.20;;;4.10;99.90;;;;;;5008270;28;20036;-64
2020/12/28 09:41:59;;;;;;;3.22;1.10;;;4.10;99.90;;;;;;4995836;28;20026;-65
2020/12/28 09:44:25;;;;;;;1.50;1.17;;;4.10;99.90;;;;;;5008386;28;20088;-62
2020/12/28 09:46:51;;;;;;;4.07;1.50;;;4.00;99.90;;;;;;5007398;28;20448;-65
2020/12/28 09:49:17;;;;;;;3.75;1.38;;;4.00;99.90;;;;;;4988952;28;20030;-63
2020/12/28 09:51:47;;;;;;;3.67;1.80;;;4.00;99.90;;;;;;4988907;28;20042;-62
2020/12/28 09:54:12;;;;;;;3.33;1.60;;;4.00;99.90;;;;;;4988508;28;20405;-63
2020/12/28 09:56:38;;;;;;;3.75;1.90;;;4.00;99.90;;;;;;5002901;28;20034;-63
2020/12/28 09:59:03;;;;;;;5.05;2.47;;;4.10;99.90;;;;;;5008163;28;20524;-61
2020/12/28 10:01:29;;;;;;;8.50;4.80;;;4.10;99.90;;;;;;5003470;28;20022;-63
2020/12/28 10:03:54;;;;;;;13.18;4.93;;;4.10;99.90;;;;;;4988683;28;20053;-63
2020/12/28 10:06:33;;;;;;;12.70;5.93;;;4.20;99.90;;;;;;4988926;28;20080;-62
2020/12/28 10:08:59;;;;;;;10.52;5.90;;;4.20;99.90;;;;;;4989145;28;20038;-63
2020/12/28 10:11:25;;;;;;;6.60;3.42;;;4.30;99.90;;;;;;5000810;28;20400;-62
2020/12/28 10:13:51;;;;;;;4.72;2.10;;;4.40;99.90;;;;;;5004681;28;20026;-63
2020/12/28 10:16:27;;;;;;;3.85;2.53;;;4.50;99.90;;;;;;4992733;28;20559;-62
2020/12/28 10:18:54;;;;;;;2.38;1.08;;;4.60;99.90;;;;;;5007353;28;20034;-62
2020/12/28 10:21:20;;;;;;;8.68;1.38;;;4.80;99.90;;;;;;4991247;28;20034;-64
2020/12/28 10:23:46;;;;;;;1.92;0.80;;;4.90;99.90;;;;;;4990742;28;20480;-65
2020/12/28 10:26:17;;;;;;;1.27;0.90;;;5.00;99.90;;;;;;5002428;28;20029;-64
2020/12/28 10:28:43;;;;;;;4.32;1.08;;;5.10;99.90;;;;;;5012002;28;20018;-64
2020/12/28 10:31:10;;;;;;;3.67;1.23;;;5.10;99.90;;;;;;5011818;28;20162;-64
2020/12/28 10:33:38;;;;;;;2.50;1.05;;;5.20;99.90;;;;;;5008572;28;20053;-64
2020/12/28 10:36:03;;;;;;;2.95;1.10;;;5.30;99.90;;;;;;4992230;28;20289;-64
2020/12/28 10:38:29;;;;;;;3.55;1.10;;;5.30;99.90;;;;;;4991945;28;20541;-64
2020/12/28 10:40:54;;;;;;;2.15;1.00;;;5.30;99.90;;;;;;5006240;28;20113;-64
2020/12/28 10:43:20;;;;;;;1.75;0.80;;;5.40;99.90;;;;;;5011687;28;20029;-65
2020/12/28 10:45:45;;;;;;;5.00;1.25;;;5.40;99.90;;;;;;5011913;28;20121;-64
2020/12/28 10:48:11;;;;;;;6.13;1.23;;;5.40;99.90;;;;;;5011854;28;20042;-64
2020/12/28 10:50:36;;;;;;;3.30;1.02;;;5.50;99.90;;;;;;5011424;28;20100;-64
2020/12/28 10:53:02;;;;;;;2.33;0.98;;;5.50;99.90;;;;;;5011315;28;20026;-64
2020/12/28 10:55:27;;;;;;;1.83;1.33;;;5.50;99.90;;;;;;5006414;28;20029;-64
2020/12/28 10:57:53;;;;;;;10.32;1.40;;;5.50;99.90;;;;;;4994703;28;20042;-64
2020/12/28 11:00:18;;;;;;;2.95;1.00;;;5.60;99.90;;;;;;4992009;28;20078;-63
2020/12/28 11:02:44;;;;;;;5.22;2.20;;;5.50;99.90;;;;;;4991600;28;20022;-64
2020/12/28 11:05:09;;;;;;;4.88;1.25;;;5.60;99.90;;;;;;4991598;28;20032;-64
2020/12/28 11:07:35;;;;;;;8.85;2.78;;;5.60;99.90;;;;;;5010568;28;20499;-64
2020/12/28 11:10:00;;;;;;;5.03;1.92;;;5.60;99.90;;;;;;4996706;28;20478;-63
2020/12/28 11:12:26;;;;;;;2.78;1.30;;;5.60;99.90;;;;;;4991325;28;20026;-64
2020/12/28 11:14:51;;;;;;;6.78;2.75;;;5.70;99.90;;;;;;4991182;28;20465;-64
2020/12/28 11:17:17;;;;;;;4.35;1.50;;;5.80;99.90;;;;;;4991549;28;20041;-63
2020/12/28 11:19:42;;;;;;;6.30;1.00;;;5.80;99.90;;;;;;4992989;28;20417;-64
2020/12/28 11:22:08;;;;;;;4.57;1.00;;;5.90;99.90;;;;;;4997952;28;20029;-64
2020/12/28 11:24:34;;;;;;;3.85;1.15;;;6.00;99.90;;;;;;5010767;28;20036;-64
2020/12/28 11:26:59;;;;;;;3.67;0.98;;;6.00;99.90;;;;;;4993422;28;20030;-63
2020/12/28 11:29:25;;;;;;;5.47;1.15;;;6.10;99.90;;;;;;4997092;28;20071;-64
2020/12/28 11:31:50;;;;;;;1.90;1.15;;;6.10;99.90;;;;;;5010686;28;20407;-64
2020/12/28 11:34:15;;;;;;;2.97;0.90;;;6.20;99.90;;;;;;5011295;28;20034;-62
2020/12/28 11:36:42;;;;;;;3.58;1.10;;;6.30;99.90;;;;;;5011447;28;20037;-64
2020/12/28 11:39:11;;;;;;;2.50;1.40;;;6.30;99.90;;;;;;5011043;28;20105;-64
2020/12/28 11:41:37;;;;;;;8.50;1.42;;;6.30;99.90;;;;;;4996469;28;20034;-64
2020/12/28 11:44:03;;;;;;;4.15;1.70;;;6.40;99.90;;;;;;4990895;28;20038;-62
2020/12/28 11:46:28;;;;;;;1.20;1.10;;;6.30;99.90;;;;;;4995715;28;20033;-62
2020/12/28 11:48:54;;;;;;;3.08;1.33;;;6.30;99.90;;;;;;5010548;28;20096;-61
2020/12/28 11:51:19;;;;;;;2.15;1.23;;;6.30;99.90;;;;;;5010145;28;20104;-64
2020/12/28 11:53:46;;;;;;;3.50;1.70;;;6.40;99.90;;;;;;5010751;28;20025;-64
2020/12/28 11:56:12;;;;;;;1.80;1.10;;;6.40;99.90;;;;;;5003247;28;20084;-64
2020/12/28 11:58:42;;;;;;;4.15;1.75;;;6.40;99.90;;;;;;5010466;28;20026;-64
2020/12/28 12:01:16;;;;;;;5.65;1.40;;;6.40;99.90;;;;;;5010070;28;20120;-64
2020/12/28 12:03:43;;;;;;;2.75;1.50;;;6.50;99.90;;;;;;5010316;28;20030;-64
2020/12/28 12:06:16;;;;;;;1.60;1.25;;;6.50;99.90;;;;;;5009675;28;20062;-65
2020/12/28 12:11:29;;;;;;;8.13;1.60;;;6.60;99.90;;;;;;4996949;28;20201;-64
2020/12/28 12:13:54;;;;;;;4.68;2.20;;;6.60;99.90;;;;;;4990176;28;20023;-65
2020/12/28 12:16:24;;;;;;;4.85;1.77;;;6.60;99.90;;;;;;4990688;28;20030;-64
2020/12/28 12:18:50;;;;;;;8.38;2.33;;;6.60;99.90;;;;;;4990312;28;20077;-63
2020/12/28 12:21:16;;;;;;;7.70;1.95;;;6.50;99.90;;;;;;4990585;28;20447;-64
2020/12/28 12:23:41;;;;;;;4.90;2.10;;;6.50;99.90;;;;;;4989202;28;20429;-64
2020/12/28 12:26:08;;;;;;;3.10;1.85;;;6.40;99.90;;;;;;4997293;28;20034;-62
2020/12/28 12:28:33;;;;;;;3.72;1.90;;;6.50;99.90;;;;;;4991883;28;20026;-64
2020/12/28 12:30:59;;;;;;;5.35;2.05;;;6.50;99.90;;;;;;4990905;28;20031;-63
2020/12/28 12:33:24;;;;;;;6.35;2.63;;;6.40;99.90;;;;;;4989415;28;20034;-64
2020/12/28 12:35:50;;;;;;;4.00;2.20;;;6.40;99.90;;;;;;4989946;28;20397;-64
2020/12/28 12:38:15;;;;;;;4.57;2.42;;;6.40;99.90;;;;;;4989559;28;20658;-64
2020/12/28 12:40:41;;;;;;;5.45;1.73;;;6.40;99.90;;;;;;4995832;28;20439;-64
2020/12/28 12:43:06;;;;;;;6.53;2.15;;;6.40;99.90;;;;;;5009340;28;20018;-64
2020/12/28 12:45:32;;;;;;;4.95;1.73;;;6.50;99.90;;;;;;4999484;28;20077;-63
2020/12/28 12:47:57;;;;;;;3.38;1.92;;;6.50;99.90;;;;;;4989608;28;20057;-63
2020/12/28 12:50:23;;;;;;;6.60;2.13;;;6.60;99.90;;;;;;4990062;28;20027;-64
2020/12/28 12:52:48;;;;;;;4.80;1.67;;;6.60;99.90;;;;;;4989636;28;20066;-64
2020/12/28 12:55:14;;;;;;;3.88;1.70;;;6.60;99.90;;;;;;4992152;28;20034;-63
2020/12/28 12:57:39;;;;;;;6.00;1.80;;;6.60;99.90;;;;;;5009206;28;20034;-64
2020/12/28 13:00:05;;;;;;;5.28;2.00;;;6.60;99.90;;;;;;5009146;28;20033;-64
2020/12/28 13:02:36;;;;;;;5.25;2.30;;;6.60;99.90;;;;;;5009396;28;20374;-64